LFQB 211130Z AUTO 30007KT 9999 FEW009 OVC054 03/02 Q1037

ElémentsDécodage
LFQB Station météo située sur l'aérodrome de TROYES Barberey
211130Z émis le 21 du mois à 11h30 UTC
AUTO Bulletin édité par un automate
30007KT vent du 300°, 07 noeuds
9999 visibilité horizontale supérieure à 10 Km
FEW009 nuages rares (1/8 à 2/8) à 900 pieds
OVC054 couverture nuageuse totale (8/8) à 5400 pieds
03/02 température 03°C, point de rosée 02°C
 soit une humidité relative de 93%
Q1037 la pression au niveau de la mer (QNH) est de 1037 hPa